sensor_id;sensor_type;location;lat;lon;timestamp;temperature;humidity
7498;DHT22;3790;48.806;9.140;2023-04-05T00:04:35;0.50;99.90
7498;DHT22;3790;48.806;9.140;2023-04-05T00:09:37;0.50;99.90
7498;DHT22;3790;48.806;9.140;2023-04-05T00:14:38;0.40;99.90
7498;DHT22;3790;48.806;9.140;2023-04-05T00:19:38;0.30;99.90
7498;DHT22;3790;48.806;9.140;2023-04-05T00:24:39;0.10;99.90
7498;DHT22;3790;48.806;9.140;2023-04-05T00:29:42;0.10;99.90
7498;DHT22;3790;48.806;9.140;2023-04-05T00:34:43;0.10;99.90
7498;DHT22;3790;48.806;9.140;2023-04-05T00:39:43;0.10;99.90
7498;DHT22;3790;48.806;9.140;2023-04-05T00:44:44;0.10;99.90
7498;DHT22;3790;48.806;9.140;2023-04-05T00:49:45;0.10;99.90
7498;DHT22;3790;48.806;9.140;2023-04-05T00:54:45;0.00;99.90
7498;DHT22;3790;48.806;9.140;2023-04-05T00:59:46;0.00;99.90
7498;DHT22;3790;48.806;9.140;2023-04-05T01:04:51;-0.10;99.90
7498;DHT22;3790;48.806;9.140;2023-04-05T01:09:57;-0.20;99.90
7498;DHT22;3790;48.806;9.140;2023-04-05T01:14:59;-0.20;99.90
7498;DHT22;3790;48.806;9.140;2023-04-05T01:20:05;-0.20;99.90
7498;DHT22;3790;48.806;9.140;2023-04-05T01:30:40;-0.10;99.90
7498;DHT22;3790;48.806;9.140;2023-04-05T01:36:09;0.00;99.90
7498;DHT22;3790;48.806;9.140;2023-04-05T01:41:11;0.00;99.90
7498;DHT22;3790;48.806;9.140;2023-04-05T01:46:11;-0.10;99.90
7498;DHT22;3790;48.806;9.140;2023-04-05T01:51:12;-0.10;99.90
7498;DHT22;3790;48.806;9.140;2023-04-05T01:56:12;-0.20;99.90
7498;DHT22;3790;48.806;9.140;2023-04-05T02:01:13;-0.30;99.90
7498;DHT22;3790;48.806;9.140;2023-04-05T02:06:13;-0.40;99.90
7498;DHT22;3790;48.806;9.140;2023-04-05T02:11:14;-0.50;99.90
7498;DHT22;3790;48.806;9.140;2023-04-05T02:16:14;-0.50;99.90
7498;DHT22;3790;48.806;9.140;2023-04-05T02:21:16;-0.60;99.90
7498;DHT22;3790;48.806;9.140;2023-04-05T02:26:17;-0.70;99.90
7498;DHT22;3790;48.806;9.140;2023-04-05T02:31:17;-0.80;99.90
7498;DHT22;3790;48.806;9.140;2023-04-05T02:36:18;-0.90;99.90
7498;DHT22;3790;48.806;9.140;2023-04-05T02:41:18;-1.00;99.90
7498;DHT22;3790;48.806;9.140;2023-04-05T02:46:22;-1.10;99.90
7498;DHT22;3790;48.806;9.140;2023-04-05T02:51:22;-1.10;99.90
7498;DHT22;3790;48.806;9.140;2023-04-05T02:56:23;-1.10;99.90
7498;DHT22;3790;48.806;9.140;2023-04-05T03:01:24;-1.20;99.90
7498;DHT22;3790;48.806;9.140;2023-04-05T03:06:25;-1.20;99.90
7498;DHT22;3790;48.806;9.140;2023-04-05T03:11:25;-1.20;99.90
7498;DHT22;3790;48.806;9.140;2023-04-05T03:16:26;-1.10;99.90
7498;DHT22;3790;48.806;9.140;2023-04-05T03:21:27;-1.30;99.90
7498;DHT22;3790;48.806;9.140;2023-04-05T03:26:29;-1.50;99.90
7498;DHT22;3790;48.806;9.140;2023-04-05T03:31:29;-1.60;99.90
7498;DHT22;3790;48.806;9.140;2023-04-05T03:36:30;-1.80;99.90
7498;DHT22;3790;48.806;9.140;2023-04-05T03:41:41;-1.90;99.90
7498;DHT22;3790;48.806;9.140;2023-04-05T03:46:41;-1.90;99.90
7498;DHT22;3790;48.806;9.140;2023-04-05T03:51:42;-2.00;99.90
7498;DHT22;3790;48.806;9.140;2023-04-05T03:56:42;-2.00;99.90
7498;DHT22;3790;48.806;9.140;2023-04-05T04:01:43;-2.00;99.90
7498;DHT22;3790;48.806;9.140;2023-04-05T04:06:44;-2.10;99.90
7498;DHT22;3790;48.806;9.140;2023-04-05T04:11:44;-2.20;99.90
7498;DHT22;3790;48.806;9.140;2023-04-05T04:16:45;-2.20;99.90
7498;DHT22;3790;48.806;9.140;2023-04-05T04:21:45;-2.30;99.90
7498;DHT22;3790;48.806;9.140;2023-04-05T04:26:51;-2.40;99.90
7498;DHT22;3790;48.806;9.140;2023-04-05T04:31:54;-2.40;99.90
7498;DHT22;3790;48.806;9.140;2023-04-05T04:36:55;-2.30;99.90
7498;DHT22;3790;48.806;9.140;2023-04-05T04:42:00;-2.00;99.90
7498;DHT22;3790;48.806;9.140;2023-04-05T04:47:01;-2.10;99.90
7498;DHT22;3790;48.806;9.140;2023-04-05T04:52:01;-2.20;99.90
7498;DHT22;3790;48.806;9.140;2023-04-05T04:57:02;-2.30;99.90
7498;DHT22;3790;48.806;9.140;2023-04-05T05:02:03;-2.20;99.90
7498;DHT22;3790;48.806;9.140;2023-04-05T05:07:10;-2.20;99.90
7498;DHT22;3790;48.806;9.140;2023-04-05T05:12:12;-2.20;99.90
7498;DHT22;3790;48.806;9.140;2023-04-05T05:17:12;-2.20;99.90
7498;DHT22;3790;48.806;9.140;2023-04-05T05:22:13;-2.10;99.90
7498;DHT22;3790;48.806;9.140;2023-04-05T05:27:13;-1.80;99.90
7498;DHT22;3790;48.806;9.140;2023-04-05T05:32:14;-1.70;99.90
7498;DHT22;3790;48.806;9.140;2023-04-05T05:37:16;-1.50;99.90
7498;DHT22;3790;48.806;9.140;2023-04-05T05:42:17;-1.30;99.90
7498;DHT22;3790;48.806;9.140;2023-04-05T05:47:18;-1.20;99.90
7498;DHT22;3790;48.806;9.140;2023-04-05T05:52:19;-1.00;99.90
7498;DHT22;3790;48.806;9.140;2023-04-05T05:57:19;-0.90;99.90
7498;DHT22;3790;48.806;9.140;2023-04-05T06:02:20;-0.80;99.90
7498;DHT22;3790;48.806;9.140;2023-04-05T06:07:20;-0.70;99.90
7498;DHT22;3790;48.806;9.140;2023-04-05T06:12:21;-0.50;99.90
7498;DHT22;3790;48.806;9.140;2023-04-05T06:17:22;-0.40;99.90
7498;DHT22;3790;48.806;9.140;2023-04-05T06:22:23;-0.10;99.90
7498;DHT22;3790;48.806;9.140;2023-04-05T06:27:24;0.10;99.90
7498;DHT22;3790;48.806;9.140;2023-04-05T06:32:24;0.30;99.90
7498;DHT22;3790;48.806;9.140;2023-04-05T06:37:25;0.30;99.90
7498;DHT22;3790;48.806;9.140;2023-04-05T06:42:25;0.40;99.90
7498;DHT22;3790;48.806;9.140;2023-04-05T06:47:26;0.50;99.90
7498;DHT22;3790;48.806;9.140;2023-04-05T06:52:27;0.70;99.90
7498;DHT22;3790;48.806;9.140;2023-04-05T06:57:28;0.80;99.90
7498;DHT22;3790;48.806;9.140;2023-04-05T07:02:29;1.00;99.90
7498;DHT22;3790;48.806;9.140;2023-04-05T07:07:32;1.20;99.90
7498;DHT22;3790;48.806;9.140;2023-04-05T07:12:33;1.30;99.90
7498;DHT22;3790;48.806;9.140;2023-04-05T07:17:33;1.40;99.90
7498;DHT22;3790;48.806;9.140;2023-04-05T07:22:34;1.60;99.90
7498;DHT22;3790;48.806;9.140;2023-04-05T07:27:35;1.80;99.90
7498;DHT22;3790;48.806;9.140;2023-04-05T07:32:35;1.90;99.90
7498;DHT22;3790;48.806;9.140;2023-04-05T07:37:36;2.10;99.90
7498;DHT22;3790;48.806;9.140;2023-04-05T07:42:37;2.20;99.90
7498;DHT22;3790;48.806;9.140;2023-04-05T07:47:38;2.40;99.90
7498;DHT22;3790;48.806;9.140;2023-04-05T07:52:38;2.50;99.90
7498;DHT22;3790;48.806;9.140;2023-04-05T07:57:39;2.60;99.90
7498;DHT22;3790;48.806;9.140;2023-04-05T08:02:40;2.60;99.90
7498;DHT22;3790;48.806;9.140;2023-04-05T08:07:40;2.70;99.90
7498;DHT22;3790;48.806;9.140;2023-04-05T08:12:41;2.90;99.90
7498;DHT22;3790;48.806;9.140;2023-04-05T08:17:41;3.20;99.90
7498;DHT22;3790;48.806;9.140;2023-04-05T08:22:42;3.40;99.90
7498;DHT22;3790;48.806;9.140;2023-04-05T08:27:42;3.50;99.90
7498;DHT22;3790;48.806;9.140;2023-04-05T08:32:43;3.70;99.90
7498;DHT22;3790;48.806;9.140;2023-04-05T08:37:43;3.80;99.90
7498;DHT22;3790;48.806;9.140;2023-04-05T08:42:51;4.00;99.90
7498;DHT22;3790;48.806;9.140;2023-04-05T08:47:52;4.20;99.90
7498;DHT22;3790;48.806;9.140;2023-04-05T08:52:55;4.20;99.90
7498;DHT22;3790;48.806;9.140;2023-04-05T08:57:58;4.40;99.90
7498;DHT22;3790;48.806;9.140;2023-04-05T09:03:00;4.50;99.90
7498;DHT22;3790;48.806;9.140;2023-04-05T09:08:02;4.70;99.90
7498;DHT22;3790;48.806;9.140;2023-04-05T09:13:02;4.80;98.00
7498;DHT22;3790;48.806;9.140;2023-04-05T09:18:03;4.90;98.60
7498;DHT22;3790;48.806;9.140;2023-04-05T09:23:04;5.00;97.00
7498;DHT22;3790;48.806;9.140;2023-04-05T09:28:05;5.10;97.10
7498;DHT22;3790;48.806;9.140;2023-04-05T09:33:07;5.20;98.00
7498;DHT22;3790;48.806;9.140;2023-04-05T09:38:09;5.20;98.10
7498;DHT22;3790;48.806;9.140;2023-04-05T09:43:11;5.30;97.40
7498;DHT22;3790;48.806;9.140;2023-04-05T09:48:14;5.30;97.20
7498;DHT22;3790;48.806;9.140;2023-04-05T09:53:14;5.50;97.30
7498;DHT22;3790;48.806;9.140;2023-04-05T09:58:20;5.90;97.30
7498;DHT22;3790;48.806;9.140;2023-04-05T10:03:24;6.00;96.10
7498;DHT22;3790;48.806;9.140;2023-04-05T10:08:25;6.10;95.00
7498;DHT22;3790;48.806;9.140;2023-04-05T10:13:25;6.30;95.40
7498;DHT22;3790;48.806;9.140;2023-04-05T10:18:34;6.40;94.20
7498;DHT22;3790;48.806;9.140;2023-04-05T10:23:45;6.40;93.80
7498;DHT22;3790;48.806;9.140;2023-04-05T10:28:51;6.40;93.70
7498;DHT22;3790;48.806;9.140;2023-04-05T10:34:10;6.70;94.30
7498;DHT22;3790;48.806;9.140;2023-04-05T10:39:24;6.80;93.30
7498;DHT22;3790;48.806;9.140;2023-04-05T10:44:25;6.70;92.20
7498;DHT22;3790;48.806;9.140;2023-04-05T10:49:41;6.80;93.30
7498;DHT22;3790;48.806;9.140;2023-04-05T10:54:42;6.90;91.90
7498;DHT22;3790;48.806;9.140;2023-04-05T10:59:45;7.10;92.40
7498;DHT22;3790;48.806;9.140;2023-04-05T11:04:52;7.30;91.40
7498;DHT22;3790;48.806;9.140;2023-04-05T11:10:01;7.50;91.20
7498;DHT22;3790;48.806;9.140;2023-04-05T11:20:48;11.40;83.60
7498;DHT22;3790;48.806;9.140;2023-04-05T11:26:05;14.50;75.70
7498;DHT22;3790;48.806;9.140;2023-04-05T11:32:10;16.90;61.50
7498;DHT22;3790;48.806;9.140;2023-04-05T11:37:04;18.90;53.50
7498;DHT22;3790;48.806;9.140;2023-04-05T11:42:27;18.90;49.90
7498;DHT22;3790;48.806;9.140;2023-04-05T11:47:28;20.60;44.40
7498;DHT22;3790;48.806;9.140;2023-04-05T11:52:28;20.70;43.20
7498;DHT22;3790;48.806;9.140;2023-04-05T11:57:30;20.70;42.40
7498;DHT22;3790;48.806;9.140;2023-04-05T12:02:33;20.30;41.80
7498;DHT22;3790;48.806;9.140;2023-04-05T12:07:33;21.40;41.70
7498;DHT22;3790;48.806;9.140;2023-04-05T12:12:41;21.10;40.20
7498;DHT22;3790;48.806;9.140;2023-04-05T12:17:49;20.00;39.00
7498;DHT22;3790;48.806;9.140;2023-04-05T12:22:52;20.10;40.60
7498;DHT22;3790;48.806;9.140;2023-04-05T12:27:53;21.30;38.80
7498;DHT22;3790;48.806;9.140;2023-04-05T12:38:53;22.00;36.10
7498;DHT22;3790;48.806;9.140;2023-04-05T12:43:54;22.20;34.80
7498;DHT22;3790;48.806;9.140;2023-04-05T12:49:00;24.50;35.30
7498;DHT22;3790;48.806;9.140;2023-04-05T12:54:01;27.40;31.70
7498;DHT22;3790;48.806;9.140;2023-04-05T12:59:05;26.20;30.70
7498;DHT22;3790;48.806;9.140;2023-04-05T13:04:07;27.60;29.00
7498;DHT22;3790;48.806;9.140;2023-04-05T13:09:07;27.00;28.80
7498;DHT22;3790;48.806;9.140;2023-04-05T13:14:08;27.90;29.30
7498;DHT22;3790;48.806;9.140;2023-04-05T13:19:08;27.40;29.20
7498;DHT22;3790;48.806;9.140;2023-04-05T13:24:09;27.90;28.70
7498;DHT22;3790;48.806;9.140;2023-04-05T13:29:09;27.80;29.10
7498;DHT22;3790;48.806;9.140;2023-04-05T13:34:10;28.90;28.50
7498;DHT22;3790;48.806;9.140;2023-04-05T13:39:10;28.50;28.70
7498;DHT22;3790;48.806;9.140;2023-04-05T13:44:11;26.10;29.00
7498;DHT22;3790;48.806;9.140;2023-04-05T13:49:11;24.90;29.40
7498;DHT22;3790;48.806;9.140;2023-04-05T13:54:12;26.00;29.50
7498;DHT22;3790;48.806;9.140;2023-04-05T13:59:12;24.90;29.10
7498;DHT22;3790;48.806;9.140;2023-04-05T14:04:15;24.40;30.00
7498;DHT22;3790;48.806;9.140;2023-04-05T14:09:16;24.40;30.10
7498;DHT22;3790;48.806;9.140;2023-04-05T14:14:16;26.80;29.20
7498;DHT22;3790;48.806;9.140;2023-04-05T14:19:17;24.70;28.90
7498;DHT22;3790;48.806;9.140;2023-04-05T14:24:18;26.60;29.00
7498;DHT22;3790;48.806;9.140;2023-04-05T14:29:19;27.30;28.40
7498;DHT22;3790;48.806;9.140;2023-04-05T14:34:20;24.70;28.50
7498;DHT22;3790;48.806;9.140;2023-04-05T14:39:20;23.20;30.00
7498;DHT22;3790;48.806;9.140;2023-04-05T14:44:21;24.70;29.00
7498;DHT22;3790;48.806;9.140;2023-04-05T14:49:21;26.20;29.30
7498;DHT22;3790;48.806;9.140;2023-04-05T14:54:22;28.00;26.90
7498;DHT22;3790;48.806;9.140;2023-04-05T14:59:22;26.40;28.10
7498;DHT22;3790;48.806;9.140;2023-04-05T15:04:23;25.10;27.80
7498;DHT22;3790;48.806;9.140;2023-04-05T15:09:23;24.90;29.20
7498;DHT22;3790;48.806;9.140;2023-04-05T15:14:24;28.70;27.90
7498;DHT22;3790;48.806;9.140;2023-04-05T15:19:24;27.40;26.80
7498;DHT22;3790;48.806;9.140;2023-04-05T15:24:26;25.10;27.40
7498;DHT22;3790;48.806;9.140;2023-04-05T15:29:28;26.30;28.40
7498;DHT22;3790;48.806;9.140;2023-04-05T15:34:29;27.10;28.30
7498;DHT22;3790;48.806;9.140;2023-04-05T15:39:29;26.20;28.80
7498;DHT22;3790;48.806;9.140;2023-04-05T15:44:30;25.70;27.90
7498;DHT22;3790;48.806;9.140;2023-04-05T15:49:31;24.70;28.20
7498;DHT22;3790;48.806;9.140;2023-04-05T15:54:31;25.40;28.60
7498;DHT22;3790;48.806;9.140;2023-04-05T15:59:32;24.50;28.30
7498;DHT22;3790;48.806;9.140;2023-04-05T16:04:33;23.70;29.20
7498;DHT22;3790;48.806;9.140;2023-04-05T16:09:33;25.80;28.90
7498;DHT22;3790;48.806;9.140;2023-04-05T16:14:34;25.60;28.00
7498;DHT22;3790;48.806;9.140;2023-04-05T16:19:34;25.00;28.20
7498;DHT22;3790;48.806;9.140;2023-04-05T16:24:35;24.10;28.30
7498;DHT22;3790;48.806;9.140;2023-04-05T16:29:37;24.00;28.70
7498;DHT22;3790;48.806;9.140;2023-04-05T16:34:38;25.00;28.10
7498;DHT22;3790;48.806;9.140;2023-04-05T16:39:38;24.50;28.90
7498;DHT22;3790;48.806;9.140;2023-04-05T16:44:38;23.00;28.70
7498;DHT22;3790;48.806;9.140;2023-04-05T16:49:39;20.30;29.70
7498;DHT22;3790;48.806;9.140;2023-04-05T16:54:40;16.60;30.60
7498;DHT22;3790;48.806;9.140;2023-04-05T16:59:40;12.90;34.00
7498;DHT22;3790;48.806;9.140;2023-04-05T17:04:41;11.40;35.50
7498;DHT22;3790;48.806;9.140;2023-04-05T17:09:41;10.90;37.00
7498;DHT22;3790;48.806;9.140;2023-04-05T17:14:42;10.60;37.60
7498;DHT22;3790;48.806;9.140;2023-04-05T17:19:42;11.40;38.10
7498;DHT22;3790;48.806;9.140;2023-04-05T17:24:45;13.80;35.50
7498;DHT22;3790;48.806;9.140;2023-04-05T17:29:45;14.80;35.10
7498;DHT22;3790;48.806;9.140;2023-04-05T17:34:46;14.70;34.40
7498;DHT22;3790;48.806;9.140;2023-04-05T17:39:46;13.70;34.30
7498;DHT22;3790;48.806;9.140;2023-04-05T17:44:47;12.20;34.40
7498;DHT22;3790;48.806;9.140;2023-04-05T17:49:47;10.40;38.10
7498;DHT22;3790;48.806;9.140;2023-04-05T17:54:48;9.00;41.90
7498;DHT22;3790;48.806;9.140;2023-04-05T17:59:48;8.00;44.80
7498;DHT22;3790;48.806;9.140;2023-04-05T18:04:49;7.40;47.50
7498;DHT22;3790;48.806;9.140;2023-04-05T18:09:49;7.00;48.10
7498;DHT22;3790;48.806;9.140;2023-04-05T18:14:50;6.70;49.70
7498;DHT22;3790;48.806;9.140;2023-04-05T18:19:50;6.30;52.30
7498;DHT22;3790;48.806;9.140;2023-04-05T18:24:52;6.00;54.40
7498;DHT22;3790;48.806;9.140;2023-04-05T18:29:52;5.80;57.10
7498;DHT22;3790;48.806;9.140;2023-04-05T18:34:53;5.70;58.70
7498;DHT22;3790;48.806;9.140;2023-04-05T18:39:53;5.50;61.30
7498;DHT22;3790;48.806;9.140;2023-04-05T18:44:54;5.50;64.00
7498;DHT22;3790;48.806;9.140;2023-04-05T18:49:54;5.30;64.30
7498;DHT22;3790;48.806;9.140;2023-04-05T18:54:55;5.30;66.20
7498;DHT22;3790;48.806;9.140;2023-04-05T18:59:57;5.30;67.40
7498;DHT22;3790;48.806;9.140;2023-04-05T19:04:58;5.10;71.60
7498;DHT22;3790;48.806;9.140;2023-04-05T19:09:59;4.80;76.70
7498;DHT22;3790;48.806;9.140;2023-04-05T19:14:59;4.50;79.00
7498;DHT22;3790;48.806;9.140;2023-04-05T19:20:00;4.50;82.10
7498;DHT22;3790;48.806;9.140;2023-04-05T19:25:00;4.50;86.40
7498;DHT22;3790;48.806;9.140;2023-04-05T19:30:02;4.40;88.60
7498;DHT22;3790;48.806;9.140;2023-04-05T19:35:03;4.20;90.60
7498;DHT22;3790;48.806;9.140;2023-04-05T19:40:06;4.10;91.70
7498;DHT22;3790;48.806;9.140;2023-04-05T19:45:07;4.10;92.50
7498;DHT22;3790;48.806;9.140;2023-04-05T19:55:33;3.80;94.30
7498;DHT22;3790;48.806;9.140;2023-04-05T20:00:45;3.70;94.60
7498;DHT22;3790;48.806;9.140;2023-04-05T20:06:12;3.70;95.80
7498;DHT22;3790;48.806;9.140;2023-04-05T20:11:21;3.70;97.30
7498;DHT22;3790;48.806;9.140;2023-04-05T20:16:25;3.60;98.00
7498;DHT22;3790;48.806;9.140;2023-04-05T20:21:25;3.30;99.40
7498;DHT22;3790;48.806;9.140;2023-04-05T20:26:28;3.30;99.80
7498;DHT22;3790;48.806;9.140;2023-04-05T20:31:31;3.30;99.90
7498;DHT22;3790;48.806;9.140;2023-04-05T20:36:34;3.00;99.90
7498;DHT22;3790;48.806;9.140;2023-04-05T20:41:35;3.40;99.90
7498;DHT22;3790;48.806;9.140;2023-04-05T20:46:40;3.50;99.90
7498;DHT22;3790;48.806;9.140;2023-04-05T20:51:41;3.10;99.90
7498;DHT22;3790;48.806;9.140;2023-04-05T20:56:41;2.80;99.90
7498;DHT22;3790;48.806;9.140;2023-04-05T21:01:42;2.60;99.90
7498;DHT22;3790;48.806;9.140;2023-04-05T21:06:46;2.50;99.90
7498;DHT22;3790;48.806;9.140;2023-04-05T21:11:46;2.40;99.90
7498;DHT22;3790;48.806;9.140;2023-04-05T21:16:47;2.30;99.90
7498;DHT22;3790;48.806;9.140;2023-04-05T21:21:47;2.30;99.90
7498;DHT22;3790;48.806;9.140;2023-04-05T21:26:48;2.20;99.90
7498;DHT22;3790;48.806;9.140;2023-04-05T21:31:48;2.10;99.90
7498;DHT22;3790;48.806;9.140;2023-04-05T21:36:49;2.10;99.90
7498;DHT22;3790;48.806;9.140;2023-04-05T21:41:50;2.10;99.90
7498;DHT22;3790;48.806;9.140;2023-04-05T21:46:50;2.10;99.90
7498;DHT22;3790;48.806;9.140;2023-04-05T21:51:51;2.20;99.90
7498;DHT22;3790;48.806;9.140;2023-04-05T21:56:51;2.20;99.90
7498;DHT22;3790;48.806;9.140;2023-04-05T22:01:52;2.20;99.90
7498;DHT22;3790;48.806;9.140;2023-04-05T22:06:52;2.00;99.90
7498;DHT22;3790;48.806;9.140;2023-04-05T22:11:53;1.90;99.90
7498;DHT22;3790;48.806;9.140;2023-04-05T22:16:54;2.00;99.90
7498;DHT22;3790;48.806;9.140;2023-04-05T22:21:55;2.00;99.90
7498;DHT22;3790;48.806;9.140;2023-04-05T22:26:55;1.70;99.90
7498;DHT22;3790;48.806;9.140;2023-04-05T22:31:56;1.70;99.90
7498;DHT22;3790;48.806;9.140;2023-04-05T22:36:57;1.60;99.90
7498;DHT22;3790;48.806;9.140;2023-04-05T22:41:57;1.30;99.90
7498;DHT22;3790;48.806;9.140;2023-04-05T22:46:58;1.10;99.90
7498;DHT22;3790;48.806;9.140;2023-04-05T22:51:58;1.10;99.90
7498;DHT22;3790;48.806;9.140;2023-04-05T22:57:00;1.00;99.90
7498;DHT22;3790;48.806;9.140;2023-04-05T23:02:01;0.90;99.90
7498;DHT22;3790;48.806;9.140;2023-04-05T23:07:01;0.90;99.90
7498;DHT22;3790;48.806;9.140;2023-04-05T23:12:02;0.80;99.90
7498;DHT22;3790;48.806;9.140;2023-04-05T23:17:02;0.60;99.90
7498;DHT22;3790;48.806;9.140;2023-04-05T23:22:04;0.50;99.90
7498;DHT22;3790;48.806;9.140;2023-04-05T23:27:05;0.60;99.90
7498;DHT22;3790;48.806;9.140;2023-04-05T23:32:06;0.60;99.90
7498;DHT22;3790;48.806;9.140;2023-04-05T23:37:11;0.80;99.90
7498;DHT22;3790;48.806;9.140;2023-04-05T23:42:12;0.80;99.90
7498;DHT22;3790;48.806;9.140;2023-04-05T23:47:13;0.80;99.90
7498;DHT22;3790;48.806;9.140;2023-04-05T23:52:13;0.70;99.90
7498;DHT22;3790;48.806;9.140;2023-04-05T23:57:14;0.60;99.90
